sensor_id;sensor_type;location;lat;lon;timestamp;temperature;humidity
45785;DHT22;31489;51.404;5.474;2023-03-01T00:01:25;6.20;43.00
45785;DHT22;31489;51.404;5.474;2023-03-01T00:03:51;6.10;43.00
45785;DHT22;31489;51.404;5.474;2023-03-01T00:06:18;6.20;43.10
45785;DHT22;31489;51.404;5.474;2023-03-01T00:08:44;6.10;43.10
45785;DHT22;31489;51.404;5.474;2023-03-01T00:11:13;6.10;43.20
45785;DHT22;31489;51.404;5.474;2023-03-01T00:13:40;6.10;43.20
45785;DHT22;31489;51.404;5.474;2023-03-01T00:16:09;6.10;43.10
45785;DHT22;31489;51.404;5.474;2023-03-01T00:18:35;6.10;43.30
45785;DHT22;31489;51.404;5.474;2023-03-01T00:21:01;6.10;43.30
45785;DHT22;31489;51.404;5.474;2023-03-01T00:23:27;6.10;43.30
45785;DHT22;31489;51.404;5.474;2023-03-01T00:25:53;6.10;43.30
45785;DHT22;31489;51.404;5.474;2023-03-01T00:28:19;6.10;43.30
45785;DHT22;31489;51.404;5.474;2023-03-01T00:30:46;6.10;43.30
45785;DHT22;31489;51.404;5.474;2023-03-01T00:33:12;6.00;43.30
45785;DHT22;31489;51.404;5.474;2023-03-01T00:35:38;6.10;43.40
45785;DHT22;31489;51.404;5.474;2023-03-01T00:38:04;6.00;43.30
45785;DHT22;31489;51.404;5.474;2023-03-01T00:40:32;6.00;43.40
45785;DHT22;31489;51.404;5.474;2023-03-01T00:42:58;6.00;43.50
45785;DHT22;31489;51.404;5.474;2023-03-01T00:45:24;5.90;43.40
45785;DHT22;31489;51.404;5.474;2023-03-01T00:47:50;6.00;43.50
45785;DHT22;31489;51.404;5.474;2023-03-01T00:50:17;6.00;43.60
45785;DHT22;31489;51.404;5.474;2023-03-01T00:52:43;5.90;43.60
45785;DHT22;31489;51.404;5.474;2023-03-01T00:55:09;5.90;43.60
45785;DHT22;31489;51.404;5.474;2023-03-01T00:57:35;5.90;43.60
45785;DHT22;31489;51.404;5.474;2023-03-01T01:00:01;5.80;43.70
45785;DHT22;31489;51.404;5.474;2023-03-01T01:02:26;5.80;43.70
45785;DHT22;31489;51.404;5.474;2023-03-01T01:04:52;5.80;43.70
45785;DHT22;31489;51.404;5.474;2023-03-01T01:07:18;5.80;43.80
45785;DHT22;31489;51.404;5.474;2023-03-01T01:09:45;5.80;43.90
45785;DHT22;31489;51.404;5.474;2023-03-01T01:12:11;5.70;43.90
45785;DHT22;31489;51.404;5.474;2023-03-01T01:14:37;5.70;43.90
45785;DHT22;31489;51.404;5.474;2023-03-01T01:17:03;5.70;43.90
45785;DHT22;31489;51.404;5.474;2023-03-01T01:19:29;5.70;44.10
45785;DHT22;31489;51.404;5.474;2023-03-01T01:21:55;5.60;44.10
45785;DHT22;31489;51.404;5.474;2023-03-01T01:24:20;5.60;44.10
45785;DHT22;31489;51.404;5.474;2023-03-01T01:26:46;5.60;44.20
45785;DHT22;31489;51.404;5.474;2023-03-01T01:29:12;5.50;44.10
45785;DHT22;31489;51.404;5.474;2023-03-01T01:31:39;5.50;44.20
45785;DHT22;31489;51.404;5.474;2023-03-01T01:34:07;5.50;44.20
45785;DHT22;31489;51.404;5.474;2023-03-01T01:36:34;5.50;44.30
45785;DHT22;31489;51.404;5.474;2023-03-01T01:39:00;5.50;44.50
45785;DHT22;31489;51.404;5.474;2023-03-01T01:41:28;5.50;44.40
45785;DHT22;31489;51.404;5.474;2023-03-01T01:46:45;5.50;44.80
45785;DHT22;31489;51.404;5.474;2023-03-01T01:57:09;5.40;44.30
45785;DHT22;31489;51.404;5.474;2023-03-01T01:59:37;5.40;44.60
45785;DHT22;31489;51.404;5.474;2023-03-01T02:02:04;5.30;44.60
45785;DHT22;31489;51.404;5.474;2023-03-01T02:04:31;5.30;44.70
45785;DHT22;31489;51.404;5.474;2023-03-01T02:09:54;5.30;44.90
45785;DHT22;31489;51.404;5.474;2023-03-01T02:12:23;5.20;44.80
45785;DHT22;31489;51.404;5.474;2023-03-01T02:14:49;5.20;44.90
45785;DHT22;31489;51.404;5.474;2023-03-01T02:17:16;5.20;44.90
45785;DHT22;31489;51.404;5.474;2023-03-01T02:22:29;5.20;45.00
45785;DHT22;31489;51.404;5.474;2023-03-01T02:30:33;5.10;45.20
45785;DHT22;31489;51.404;5.474;2023-03-01T02:33:00;5.10;45.20
45785;DHT22;31489;51.404;5.474;2023-03-01T02:35:37;5.00;45.20
45785;DHT22;31489;51.404;5.474;2023-03-01T02:38:06;5.00;45.60
45785;DHT22;31489;51.404;5.474;2023-03-01T02:40:34;5.00;45.50
45785;DHT22;31489;51.404;5.474;2023-03-01T02:43:01;5.00;45.50
45785;DHT22;31489;51.404;5.474;2023-03-01T02:45:30;5.00;45.50
45785;DHT22;31489;51.404;5.474;2023-03-01T02:47:57;5.00;45.50
45785;DHT22;31489;51.404;5.474;2023-03-01T02:53:10;5.00;45.70
45785;DHT22;31489;51.404;5.474;2023-03-01T02:55:38;5.00;46.20
45785;DHT22;31489;51.404;5.474;2023-03-01T02:58:04;4.90;45.70
45785;DHT22;31489;51.404;5.474;2023-03-01T03:00:35;5.00;45.80
45785;DHT22;31489;51.404;5.474;2023-03-01T03:03:05;5.00;46.50
45785;DHT22;31489;51.404;5.474;2023-03-01T03:05:31;4.90;45.70
45785;DHT22;31489;51.404;5.474;2023-03-01T03:07:59;4.90;45.80
45785;DHT22;31489;51.404;5.474;2023-03-01T03:10:31;4.90;45.90
45785;DHT22;31489;51.404;5.474;2023-03-01T03:13:00;4.90;46.10
45785;DHT22;31489;51.404;5.474;2023-03-01T03:15:28;4.90;46.00
45785;DHT22;31489;51.404;5.474;2023-03-01T03:17:55;4.90;46.00
45785;DHT22;31489;51.404;5.474;2023-03-01T03:20:24;4.90;46.00
45785;DHT22;31489;51.404;5.474;2023-03-01T03:22:52;4.90;46.10
45785;DHT22;31489;51.404;5.474;2023-03-01T03:25:19;4.90;46.10
45785;DHT22;31489;51.404;5.474;2023-03-01T03:27:46;4.90;46.10
45785;DHT22;31489;51.404;5.474;2023-03-01T03:30:15;4.80;46.00
45785;DHT22;31489;51.404;5.474;2023-03-01T03:32:42;4.90;46.10
45785;DHT22;31489;51.404;5.474;2023-03-01T03:35:19;4.90;46.20
45785;DHT22;31489;51.404;5.474;2023-03-01T03:37:45;4.80;46.20
45785;DHT22;31489;51.404;5.474;2023-03-01T03:42:59;4.80;46.40
45785;DHT22;31489;51.404;5.474;2023-03-01T03:45:25;4.70;46.30
45785;DHT22;31489;51.404;5.474;2023-03-01T03:47:51;4.70;46.80
45785;DHT22;31489;51.404;5.474;2023-03-01T03:50:17;4.70;46.30
45785;DHT22;31489;51.404;5.474;2023-03-01T03:52:43;4.70;46.40
45785;DHT22;31489;51.404;5.474;2023-03-01T03:55:10;4.70;46.40
45785;DHT22;31489;51.404;5.474;2023-03-01T03:57:42;4.70;46.50
45785;DHT22;31489;51.404;5.474;2023-03-01T04:00:11;4.60;46.70
45785;DHT22;31489;51.404;5.474;2023-03-01T04:02:43;4.60;46.70
45785;DHT22;31489;51.404;5.474;2023-03-01T04:05:11;4.60;46.70
45785;DHT22;31489;51.404;5.474;2023-03-01T04:07:38;4.60;46.80
45785;DHT22;31489;51.404;5.474;2023-03-01T04:10:05;4.60;46.70
45785;DHT22;31489;51.404;5.474;2023-03-01T04:12:33;4.60;46.80
45785;DHT22;31489;51.404;5.474;2023-03-01T04:15:00;4.60;46.80
45785;DHT22;31489;51.404;5.474;2023-03-01T04:17:26;4.60;46.80
45785;DHT22;31489;51.404;5.474;2023-03-01T04:19:51;4.60;46.80
45785;DHT22;31489;51.404;5.474;2023-03-01T04:22:17;4.60;46.90
45785;DHT22;31489;51.404;5.474;2023-03-01T04:24:44;4.50;46.90
45785;DHT22;31489;51.404;5.474;2023-03-01T04:27:10;4.50;47.00
45785;DHT22;31489;51.404;5.474;2023-03-01T04:29:36;4.50;47.00
45785;DHT22;31489;51.404;5.474;2023-03-01T04:32:02;4.50;47.00
45785;DHT22;31489;51.404;5.474;2023-03-01T04:34:29;4.50;47.00
45785;DHT22;31489;51.404;5.474;2023-03-01T04:36:55;4.50;47.10
45785;DHT22;31489;51.404;5.474;2023-03-01T04:39:20;4.50;47.00
45785;DHT22;31489;51.404;5.474;2023-03-01T04:41:46;4.40;47.00
45785;DHT22;31489;51.404;5.474;2023-03-01T04:44:12;4.40;47.10
45785;DHT22;31489;51.404;5.474;2023-03-01T04:46:38;4.40;47.20
45785;DHT22;31489;51.404;5.474;2023-03-01T04:49:04;4.40;47.20
45785;DHT22;31489;51.404;5.474;2023-03-01T04:51:30;4.40;47.20
45785;DHT22;31489;51.404;5.474;2023-03-01T04:53:58;4.40;47.20
45785;DHT22;31489;51.404;5.474;2023-03-01T04:56:23;4.40;47.30
45785;DHT22;31489;51.404;5.474;2023-03-01T04:58:49;4.40;47.30
45785;DHT22;31489;51.404;5.474;2023-03-01T05:01:17;4.30;47.30
45785;DHT22;31489;51.404;5.474;2023-03-01T05:03:45;4.30;47.40
45785;DHT22;31489;51.404;5.474;2023-03-01T05:06:12;4.30;47.40
45785;DHT22;31489;51.404;5.474;2023-03-01T05:08:39;4.30;47.50
45785;DHT22;31489;51.404;5.474;2023-03-01T05:11:05;4.30;47.50
45785;DHT22;31489;51.404;5.474;2023-03-01T05:13:31;4.30;47.60
45785;DHT22;31489;51.404;5.474;2023-03-01T05:15:59;4.20;47.70
45785;DHT22;31489;51.404;5.474;2023-03-01T05:18:25;4.30;47.80
45785;DHT22;31489;51.404;5.474;2023-03-01T05:20:55;4.20;47.70
45785;DHT22;31489;51.404;5.474;2023-03-01T05:23:24;4.20;47.70
45785;DHT22;31489;51.404;5.474;2023-03-01T05:25:50;4.20;47.70
45785;DHT22;31489;51.404;5.474;2023-03-01T05:28:18;4.20;47.90
45785;DHT22;31489;51.404;5.474;2023-03-01T05:30:45;4.30;48.00
45785;DHT22;31489;51.404;5.474;2023-03-01T05:33:11;4.20;47.90
45785;DHT22;31489;51.404;5.474;2023-03-01T05:35:43;4.20;48.00
45785;DHT22;31489;51.404;5.474;2023-03-01T05:38:10;4.20;48.00
45785;DHT22;31489;51.404;5.474;2023-03-01T05:40:39;4.20;48.00
45785;DHT22;31489;51.404;5.474;2023-03-01T05:43:05;4.20;48.00
45785;DHT22;31489;51.404;5.474;2023-03-01T05:45:32;4.20;47.90
45785;DHT22;31489;51.404;5.474;2023-03-01T05:47:58;4.20;48.00
45785;DHT22;31489;51.404;5.474;2023-03-01T05:50:29;4.20;48.00
45785;DHT22;31489;51.404;5.474;2023-03-01T05:53:00;4.20;48.20
45785;DHT22;31489;51.404;5.474;2023-03-01T05:55:26;4.20;48.20
45785;DHT22;31489;51.404;5.474;2023-03-01T05:57:52;4.10;48.10
45785;DHT22;31489;51.404;5.474;2023-03-01T06:00:19;4.10;48.10
45785;DHT22;31489;51.404;5.474;2023-03-01T06:02:48;4.10;48.10
45785;DHT22;31489;51.404;5.474;2023-03-01T06:05:13;4.10;48.10
45785;DHT22;31489;51.404;5.474;2023-03-01T06:07:40;4.10;48.10
45785;DHT22;31489;51.404;5.474;2023-03-01T06:10:06;4.10;48.10
45785;DHT22;31489;51.404;5.474;2023-03-01T06:12:36;4.10;48.20
45785;DHT22;31489;51.404;5.474;2023-03-01T06:15:03;4.00;48.30
45785;DHT22;31489;51.404;5.474;2023-03-01T06:17:31;4.00;48.20
45785;DHT22;31489;51.404;5.474;2023-03-01T06:19:57;4.00;48.30
45785;DHT22;31489;51.404;5.474;2023-03-01T06:22:23;4.00;48.30
45785;DHT22;31489;51.404;5.474;2023-03-01T06:24:49;3.90;48.40
45785;DHT22;31489;51.404;5.474;2023-03-01T06:27:15;3.90;48.40
45785;DHT22;31489;51.404;5.474;2023-03-01T06:29:41;3.90;48.50
45785;DHT22;31489;51.404;5.474;2023-03-01T06:32:07;3.90;48.70
45785;DHT22;31489;51.404;5.474;2023-03-01T06:34:33;3.90;48.70
45785;DHT22;31489;51.404;5.474;2023-03-01T06:36:59;3.90;48.60
45785;DHT22;31489;51.404;5.474;2023-03-01T06:39:24;3.90;48.70
45785;DHT22;31489;51.404;5.474;2023-03-01T06:41:50;3.90;48.70
45785;DHT22;31489;51.404;5.474;2023-03-01T06:44:16;3.90;48.60
45785;DHT22;31489;51.404;5.474;2023-03-01T06:46:41;3.90;48.60
45785;DHT22;31489;51.404;5.474;2023-03-01T06:49:07;3.90;48.70
45785;DHT22;31489;51.404;5.474;2023-03-01T06:51:36;3.90;48.80
45785;DHT22;31489;51.404;5.474;2023-03-01T06:54:03;3.90;48.90
45785;DHT22;31489;51.404;5.474;2023-03-01T06:56:29;3.90;48.80
45785;DHT22;31489;51.404;5.474;2023-03-01T06:58:55;3.90;48.90
45785;DHT22;31489;51.404;5.474;2023-03-01T07:01:21;3.90;49.00
45785;DHT22;31489;51.404;5.474;2023-03-01T07:03:46;3.90;49.00
45785;DHT22;31489;51.404;5.474;2023-03-01T07:06:12;3.80;49.00
45785;DHT22;31489;51.404;5.474;2023-03-01T07:08:37;3.90;49.10
45785;DHT22;31489;51.404;5.474;2023-03-01T07:11:03;3.90;49.10
45785;DHT22;31489;51.404;5.474;2023-03-01T07:13:29;3.90;49.10
45785;DHT22;31489;51.404;5.474;2023-03-01T07:15:55;3.90;49.20
45785;DHT22;31489;51.404;5.474;2023-03-01T07:18:21;3.90;49.20
45785;DHT22;31489;51.404;5.474;2023-03-01T07:20:46;3.90;49.20
45785;DHT22;31489;51.404;5.474;2023-03-01T07:23:12;3.90;49.20
45785;DHT22;31489;51.404;5.474;2023-03-01T07:25:38;3.90;49.30
45785;DHT22;31489;51.404;5.474;2023-03-01T07:28:04;4.00;49.30
45785;DHT22;31489;51.404;5.474;2023-03-01T07:30:29;4.00;49.40
45785;DHT22;31489;51.404;5.474;2023-03-01T07:32:57;4.00;49.50
45785;DHT22;31489;51.404;5.474;2023-03-01T07:35:24;4.10;49.60
45785;DHT22;31489;51.404;5.474;2023-03-01T07:37:50;4.10;49.60
45785;DHT22;31489;51.404;5.474;2023-03-01T07:40:16;4.10;49.50
45785;DHT22;31489;51.404;5.474;2023-03-01T07:42:42;4.10;49.50
45785;DHT22;31489;51.404;5.474;2023-03-01T07:45:08;4.20;49.50
45785;DHT22;31489;51.404;5.474;2023-03-01T07:47:34;4.20;49.50
45785;DHT22;31489;51.404;5.474;2023-03-01T07:49:59;4.20;49.60
45785;DHT22;31489;51.404;5.474;2023-03-01T07:52:26;4.20;49.60
45785;DHT22;31489;51.404;5.474;2023-03-01T07:54:52;4.30;49.60
45785;DHT22;31489;51.404;5.474;2023-03-01T07:57:18;4.30;49.60
45785;DHT22;31489;51.404;5.474;2023-03-01T07:59:43;4.30;49.60
45785;DHT22;31489;51.404;5.474;2023-03-01T08:02:10;4.40;49.60
45785;DHT22;31489;51.404;5.474;2023-03-01T08:04:36;4.40;49.70
45785;DHT22;31489;51.404;5.474;2023-03-01T08:07:04;4.40;49.70
45785;DHT22;31489;51.404;5.474;2023-03-01T08:09:34;4.50;49.70
45785;DHT22;31489;51.404;5.474;2023-03-01T08:12:01;4.60;50.40
45785;DHT22;31489;51.404;5.474;2023-03-01T08:14:27;4.60;49.50
45785;DHT22;31489;51.404;5.474;2023-03-01T08:16:52;4.60;49.50
45785;DHT22;31489;51.404;5.474;2023-03-01T08:19:18;4.70;49.50
45785;DHT22;31489;51.404;5.474;2023-03-01T08:21:44;4.80;49.60
45785;DHT22;31489;51.404;5.474;2023-03-01T08:24:10;4.80;50.20
45785;DHT22;31489;51.404;5.474;2023-03-01T08:26:36;4.90;49.60
45785;DHT22;31489;51.404;5.474;2023-03-01T08:29:02;4.90;49.60
45785;DHT22;31489;51.404;5.474;2023-03-01T08:31:32;5.00;49.60
45785;DHT22;31489;51.404;5.474;2023-03-01T08:34:00;5.00;49.60
45785;DHT22;31489;51.404;5.474;2023-03-01T08:36:32;5.10;49.70
45785;DHT22;31489;51.404;5.474;2023-03-01T08:38:58;5.10;49.50
45785;DHT22;31489;51.404;5.474;2023-03-01T08:41:24;5.20;49.40
45785;DHT22;31489;51.404;5.474;2023-03-01T08:43:50;5.30;49.50
45785;DHT22;31489;51.404;5.474;2023-03-01T08:46:16;5.40;49.40
45785;DHT22;31489;51.404;5.474;2023-03-01T08:48:44;5.40;49.30
45785;DHT22;31489;51.404;5.474;2023-03-01T08:51:12;5.50;49.30
45785;DHT22;31489;51.404;5.474;2023-03-01T08:53:38;5.50;49.30
45785;DHT22;31489;51.404;5.474;2023-03-01T08:56:04;5.60;49.10
45785;DHT22;31489;51.404;5.474;2023-03-01T08:58:30;5.70;49.80
45785;DHT22;31489;51.404;5.474;2023-03-01T09:00:56;5.80;49.10
45785;DHT22;31489;51.404;5.474;2023-03-01T09:03:22;5.80;49.10
45785;DHT22;31489;51.404;5.474;2023-03-01T09:05:49;5.90;49.10
45785;DHT22;31489;51.404;5.474;2023-03-01T09:08:16;6.00;49.10
45785;DHT22;31489;51.404;5.474;2023-03-01T09:10:42;6.00;49.00
45785;DHT22;31489;51.404;5.474;2023-03-01T09:13:08;6.10;48.70
45785;DHT22;31489;51.404;5.474;2023-03-01T09:15:36;6.20;48.70
45785;DHT22;31489;51.404;5.474;2023-03-01T09:18:01;6.20;48.60
45785;DHT22;31489;51.404;5.474;2023-03-01T09:20:27;6.30;48.70
45785;DHT22;31489;51.404;5.474;2023-03-01T09:22:53;6.40;48.50
45785;DHT22;31489;51.404;5.474;2023-03-01T09:25:18;6.40;48.50
45785;DHT22;31489;51.404;5.474;2023-03-01T09:27:44;6.50;48.50
45785;DHT22;31489;51.404;5.474;2023-03-01T09:30:10;6.60;48.50
45785;DHT22;31489;51.404;5.474;2023-03-01T09:32:36;6.70;48.40
45785;DHT22;31489;51.404;5.474;2023-03-01T09:35:04;6.70;48.30
45785;DHT22;31489;51.404;5.474;2023-03-01T09:37:34;6.80;48.20
45785;DHT22;31489;51.404;5.474;2023-03-01T09:40:00;6.90;48.00
45785;DHT22;31489;51.404;5.474;2023-03-01T09:42:29;7.00;47.70
45785;DHT22;31489;51.404;5.474;2023-03-01T09:45:02;7.10;47.60
45785;DHT22;31489;51.404;5.474;2023-03-01T09:47:34;7.10;47.60
45785;DHT22;31489;51.404;5.474;2023-03-01T09:50:15;7.20;47.30
45785;DHT22;31489;51.404;5.474;2023-03-01T09:55:13;7.30;47.30
45785;DHT22;31489;51.404;5.474;2023-03-01T10:00:50;7.50;47.10
45785;DHT22;31489;51.404;5.474;2023-03-01T10:03:21;7.60;47.00
45785;DHT22;31489;51.404;5.474;2023-03-01T10:08:33;7.70;47.00
45785;DHT22;31489;51.404;5.474;2023-03-01T10:11:02;7.80;46.80
45785;DHT22;31489;51.404;5.474;2023-03-01T10:13:43;7.90;47.50
45785;DHT22;31489;51.404;5.474;2023-03-01T10:16:19;8.00;46.90
45785;DHT22;31489;51.404;5.474;2023-03-01T10:18:51;8.00;46.60
45785;DHT22;31489;51.404;5.474;2023-03-01T10:21:19;8.20;46.70
45785;DHT22;31489;51.404;5.474;2023-03-01T10:23:51;8.40;46.80
45785;DHT22;31489;51.404;5.474;2023-03-01T10:29:08;8.90;47.30
45785;DHT22;31489;51.404;5.474;2023-03-01T10:31:49;9.40;47.50
45785;DHT22;31489;51.404;5.474;2023-03-01T10:34:41;9.80;47.70
45785;DHT22;31489;51.404;5.474;2023-03-01T10:39:36;11.10;47.60
45785;DHT22;31489;51.404;5.474;2023-03-01T10:43:01;11.80;47.70
45785;DHT22;31489;51.404;5.474;2023-03-01T10:47:44;13.40;45.30
45785;DHT22;31489;51.404;5.474;2023-03-01T10:50:21;14.00;45.40
45785;DHT22;31489;51.404;5.474;2023-03-01T10:53:01;14.70;43.60
45785;DHT22;31489;51.404;5.474;2023-03-01T10:55:36;15.40;42.60
45785;DHT22;31489;51.404;5.474;2023-03-01T10:58:17;16.10;42.20
45785;DHT22;31489;51.404;5.474;2023-03-01T11:01:03;16.70;40.80
45785;DHT22;31489;51.404;5.474;2023-03-01T11:03:36;17.30;40.60
45785;DHT22;31489;51.404;5.474;2023-03-01T11:06:20;17.90;39.30
45785;DHT22;31489;51.404;5.474;2023-03-01T11:08:53;18.40;38.40
45785;DHT22;31489;51.404;5.474;2023-03-01T11:11:26;18.90;38.70
45785;DHT22;31489;51.404;5.474;2023-03-01T11:14:17;19.40;37.10
45785;DHT22;31489;51.404;5.474;2023-03-01T11:16:48;19.80;35.70
45785;DHT22;31489;51.404;5.474;2023-03-01T11:19:17;20.20;35.60
45785;DHT22;31489;51.404;5.474;2023-03-01T11:22:22;20.50;35.10
45785;DHT22;31489;51.404;5.474;2023-03-01T11:24:50;20.80;34.60
45785;DHT22;31489;51.404;5.474;2023-03-01T11:29:59;21.20;33.20
45785;DHT22;31489;51.404;5.474;2023-03-01T11:32:29;21.40;32.50
45785;DHT22;31489;51.404;5.474;2023-03-01T11:35:04;21.50;32.20
45785;DHT22;31489;51.404;5.474;2023-03-01T11:43:04;21.90;31.20
45785;DHT22;31489;51.404;5.474;2023-03-01T12:03:11;22.60;29.30
45785;DHT22;31489;51.404;5.474;2023-03-01T12:05:46;22.70;29.10
45785;DHT22;31489;51.404;5.474;2023-03-01T12:11:32;22.80;29.40
45785;DHT22;31489;51.404;5.474;2023-03-01T12:19:33;22.90;28.30
45785;DHT22;31489;51.404;5.474;2023-03-01T12:22:25;22.90;28.40
45785;DHT22;31489;51.404;5.474;2023-03-01T12:28:07;22.90;28.20
45785;DHT22;31489;51.404;5.474;2023-03-01T12:33:47;22.90;27.80
45785;DHT22;31489;51.404;5.474;2023-03-01T12:42:12;22.90;28.10
45785;DHT22;31489;51.404;5.474;2023-03-01T12:44:59;22.80;27.90
45785;DHT22;31489;51.404;5.474;2023-03-01T12:47:58;22.80;27.60
45785;DHT22;31489;51.404;5.474;2023-03-01T12:50:51;22.80;27.70
45785;DHT22;31489;51.404;5.474;2023-03-01T12:53:25;22.80;27.80
45785;DHT22;31489;51.404;5.474;2023-03-01T12:55:54;22.80;27.60
45785;DHT22;31489;51.404;5.474;2023-03-01T12:58:26;22.80;27.80
45785;DHT22;31489;51.404;5.474;2023-03-01T13:01:22;22.70;27.80
45785;DHT22;31489;51.404;5.474;2023-03-01T13:11:59;22.50;27.50
45785;DHT22;31489;51.404;5.474;2023-03-01T13:16:52;22.50;27.80
45785;DHT22;31489;51.404;5.474;2023-03-01T13:21:46;22.30;27.60
45785;DHT22;31489;51.404;5.474;2023-03-01T13:24:33;22.20;27.40
45785;DHT22;31489;51.404;5.474;2023-03-01T13:29:50;22.00;27.50
45785;DHT22;31489;51.404;5.474;2023-03-01T13:32:31;21.90;27.40
45785;DHT22;31489;51.404;5.474;2023-03-01T13:35:03;21.80;27.40
45785;DHT22;31489;51.404;5.474;2023-03-01T13:37:37;21.80;27.50
45785;DHT22;31489;51.404;5.474;2023-03-01T13:42:52;21.60;27.50
45785;DHT22;31489;51.404;5.474;2023-03-01T13:45:31;21.50;27.50
45785;DHT22;31489;51.404;5.474;2023-03-01T13:48:01;21.50;27.60
45785;DHT22;31489;51.404;5.474;2023-03-01T13:50:30;21.40;27.60
45785;DHT22;31489;51.404;5.474;2023-03-01T13:53:02;21.30;27.60
45785;DHT22;31489;51.404;5.474;2023-03-01T13:55:52;21.30;27.60
45785;DHT22;31489;51.404;5.474;2023-03-01T13:58:24;21.20;27.70
45785;DHT22;31489;51.404;5.474;2023-03-01T14:01:02;21.20;27.70
45785;DHT22;31489;51.404;5.474;2023-03-01T14:03:29;21.00;27.50
45785;DHT22;31489;51.404;5.474;2023-03-01T14:06:08;20.90;27.70
45785;DHT22;31489;51.404;5.474;2023-03-01T14:08:36;20.90;27.60
45785;DHT22;31489;51.404;5.474;2023-03-01T14:11:20;20.80;27.50
45785;DHT22;31489;51.404;5.474;2023-03-01T14:17:06;20.60;27.70
45785;DHT22;31489;51.404;5.474;2023-03-01T14:19:35;20.50;27.90
45785;DHT22;31489;51.404;5.474;2023-03-01T14:22:23;20.50;27.80
45785;DHT22;31489;51.404;5.474;2023-03-01T14:24:57;20.40;27.60
45785;DHT22;31489;51.404;5.474;2023-03-01T14:27:28;20.30;27.70
45785;DHT22;31489;51.404;5.474;2023-03-01T14:30:01;20.30;27.70
45785;DHT22;31489;51.404;5.474;2023-03-01T14:32:31;20.30;27.60
45785;DHT22;31489;51.404;5.474;2023-03-01T14:34:59;20.20;27.50
45785;DHT22;31489;51.404;5.474;2023-03-01T14:37:33;20.20;27.70
45785;DHT22;31489;51.404;5.474;2023-03-01T14:40:01;20.10;27.50
45785;DHT22;31489;51.404;5.474;2023-03-01T14:42:31;20.10;27.90
45785;DHT22;31489;51.404;5.474;2023-03-01T14:44:58;20.10;27.80
45785;DHT22;31489;51.404;5.474;2023-03-01T14:47:30;20.10;27.70
45785;DHT22;31489;51.404;5.474;2023-03-01T14:50:21;20.10;27.70
45785;DHT22;31489;51.404;5.474;2023-03-01T14:52:51;20.00;28.00
45785;DHT22;31489;51.404;5.474;2023-03-01T14:55:34;20.00;27.90
45785;DHT22;31489;51.404;5.474;2023-03-01T14:58:04;19.90;27.70
45785;DHT22;31489;51.404;5.474;2023-03-01T15:00:32;19.90;27.80
45785;DHT22;31489;51.404;5.474;2023-03-01T15:03:07;19.90;27.70
45785;DHT22;31489;51.404;5.474;2023-03-01T15:05:39;19.80;27.70
45785;DHT22;31489;51.404;5.474;2023-03-01T15:08:06;19.70;27.60
45785;DHT22;31489;51.404;5.474;2023-03-01T15:10:35;19.60;27.70
45785;DHT22;31489;51.404;5.474;2023-03-01T15:13:19;19.60;27.70
45785;DHT22;31489;51.404;5.474;2023-03-01T15:15:47;19.40;27.90
45785;DHT22;31489;51.404;5.474;2023-03-01T15:18:26;19.20;28.30
45785;DHT22;31489;51.404;5.474;2023-03-01T15:20:53;19.00;28.00
45785;DHT22;31489;51.404;5.474;2023-03-01T15:23:28;18.80;28.20
45785;DHT22;31489;51.404;5.474;2023-03-01T15:25:57;18.60;28.10
45785;DHT22;31489;51.404;5.474;2023-03-01T15:28:32;18.40;28.30
45785;DHT22;31489;51.404;5.474;2023-03-01T15:31:03;18.20;28.30
45785;DHT22;31489;51.404;5.474;2023-03-01T15:33:35;18.00;28.30
45785;DHT22;31489;51.404;5.474;2023-03-01T15:36:29;17.80;28.20
45785;DHT22;31489;51.404;5.474;2023-03-01T15:38:56;17.60;28.50
45785;DHT22;31489;51.404;5.474;2023-03-01T15:41:31;17.40;28.50
45785;DHT22;31489;51.404;5.474;2023-03-01T15:44:00;17.20;28.60
45785;DHT22;31489;51.404;5.474;2023-03-01T15:46:39;17.00;29.00
45785;DHT22;31489;51.404;5.474;2023-03-01T15:49:23;16.80;29.10
45785;DHT22;31489;51.404;5.474;2023-03-01T15:51:53;16.60;29.20
45785;DHT22;31489;51.404;5.474;2023-03-01T15:54:22;16.40;29.10
45785;DHT22;31489;51.404;5.474;2023-03-01T15:56:48;16.20;29.20
45785;DHT22;31489;51.404;5.474;2023-03-01T15:59:14;16.10;29.20
45785;DHT22;31489;51.404;5.474;2023-03-01T16:01:44;15.90;29.30
45785;DHT22;31489;51.404;5.474;2023-03-01T16:04:13;15.80;29.40
45785;DHT22;31489;51.404;5.474;2023-03-01T16:06:51;15.60;29.60
45785;DHT22;31489;51.404;5.474;2023-03-01T16:09:22;15.50;29.70
45785;DHT22;31489;51.404;5.474;2023-03-01T16:11:49;15.30;29.70
45785;DHT22;31489;51.404;5.474;2023-03-01T16:14:15;15.20;30.00
45785;DHT22;31489;51.404;5.474;2023-03-01T16:16:42;15.10;29.90
45785;DHT22;31489;51.404;5.474;2023-03-01T16:19:07;15.00;30.10
45785;DHT22;31489;51.404;5.474;2023-03-01T16:21:33;15.00;30.10
45785;DHT22;31489;51.404;5.474;2023-03-01T16:24:00;14.90;30.20
45785;DHT22;31489;51.404;5.474;2023-03-01T16:26:26;14.80;30.30
45785;DHT22;31489;51.404;5.474;2023-03-01T16:28:55;14.70;30.40
45785;DHT22;31489;51.404;5.474;2023-03-01T16:31:22;14.60;30.30
45785;DHT22;31489;51.404;5.474;2023-03-01T16:33:48;14.50;30.40
45785;DHT22;31489;51.404;5.474;2023-03-01T16:36:17;14.40;30.60
45785;DHT22;31489;51.404;5.474;2023-03-01T16:38:46;14.30;30.50
45785;DHT22;31489;51.404;5.474;2023-03-01T16:41:15;14.30;30.80
45785;DHT22;31489;51.404;5.474;2023-03-01T16:43:44;14.20;31.00
45785;DHT22;31489;51.404;5.474;2023-03-01T16:46:14;14.10;31.00
45785;DHT22;31489;51.404;5.474;2023-03-01T16:48:40;14.00;30.90
45785;DHT22;31489;51.404;5.474;2023-03-01T16:51:07;13.90;31.10
45785;DHT22;31489;51.404;5.474;2023-03-01T16:53:34;13.90;31.20
45785;DHT22;31489;51.404;5.474;2023-03-01T16:56:05;13.80;31.40
45785;DHT22;31489;51.404;5.474;2023-03-01T16:58:31;13.70;31.60
45785;DHT22;31489;51.404;5.474;2023-03-01T17:01:16;13.60;31.60
45785;DHT22;31489;51.404;5.474;2023-03-01T17:03:43;13.60;31.90
45785;DHT22;31489;51.404;5.474;2023-03-01T17:06:11;13.50;31.80
45785;DHT22;31489;51.404;5.474;2023-03-01T17:08:38;13.40;31.70
45785;DHT22;31489;51.404;5.474;2023-03-01T17:11:09;13.30;31.90
45785;DHT22;31489;51.404;5.474;2023-03-01T17:13:36;13.30;32.30
45785;DHT22;31489;51.404;5.474;2023-03-01T17:16:06;13.20;32.10
45785;DHT22;31489;51.404;5.474;2023-03-01T17:18:33;13.10;32.10
45785;DHT22;31489;51.404;5.474;2023-03-01T17:21:02;13.10;32.20
45785;DHT22;31489;51.404;5.474;2023-03-01T17:23:30;13.10;33.00
45785;DHT22;31489;51.404;5.474;2023-03-01T17:25:59;13.00;32.50
45785;DHT22;31489;51.404;5.474;2023-03-01T17:28:27;13.00;32.40
45785;DHT22;31489;51.404;5.474;2023-03-01T17:31:01;12.90;32.50
45785;DHT22;31489;51.404;5.474;2023-03-01T17:33:27;12.80;32.80
45785;DHT22;31489;51.404;5.474;2023-03-01T17:35:55;12.70;32.70
45785;DHT22;31489;51.404;5.474;2023-03-01T17:38:21;12.70;32.70
45785;DHT22;31489;51.404;5.474;2023-03-01T17:40:47;12.60;32.90
45785;DHT22;31489;51.404;5.474;2023-03-01T17:43:15;12.60;32.90
45785;DHT22;31489;51.404;5.474;2023-03-01T17:45:41;12.50;33.00